Airport View

Enter AWOS ICAO identifier for current METAR.

ex. KFNL

K2I0 022335Z AUTO 22008KT 10SM CLR 29/11 A3002 RMK AO2 T02910114

2 Jun 2020 23:44

Frequency: 126.475

Phone: 270-821-4554

Other Area AWOS: KM21 - KOWB - KEHR - K5M9

TAF KOWB 021720Z 0218/0318 25008KT P6SM SKC FM030100 VRB04KT P6SM FEW150